Main page
METAR-TAF:

METAR-TAF

Airports :

Scatsta Airport

Scatsta, Shetland, Scotland

latitude: 60-26N, longitude: 001-18W, elevation: 22 m

Current weather observation

The report was made 25 minutes ago, at 15:20 UTC
Wind 20 kt from the West/Southwest
Temperature 9°C
Humidity 71%
Pressure 1013 hPa
Visibility 10 km or more

METAR: EGPM 211520Z AUTO 25020KT 9999 SCT028/// BKN043/// 09/04 Q1013

Time: 16:45 (15:45 UTC)

Forecast

The report was made 1 hour and 48 minutes ago, at 13:57 UTC
Forecast valid from 21 at 15 UTC to 21 at 20 UTC
Wind 20 kt from the West/Southwest with gusts up to 30 kt
Visibility 10 km or more
Scattered clouds at a height of 2500 ft
Probability 40% :
Temporary
from 21 at 15 UTC to 21 at 20 UTC
Wind 28 kt from the West with gusts up to 40 kt
Visibility: 6000 m
Broken clouds at a height of 1200 ft
rain showers

TAF: EGPM 211357Z 2115/2120 25020G30KT 9999 SCT025 PROB40 TEMPO 2115/2120 26028G40KT 6000 SHRA BKN012

Weather observations and forecasts of more than 4000 airports (METAR and TAF reports).

The available stations are represented by yellow and red dots on the map.

Hover mouse over dot to see the name of the station.

Then click to see weather observations and forecasts.

To change the map : click on the green buttons with a black cross to zoom in, on the green button with a dash to zoom out, or on the green arrows for adjacent maps.


METAR-TAF: